createdAt,value
2022-09-23T09:48:25.888Z,34.54
2022-09-23T09:49:26.827Z,28.27
2022-09-23T09:50:26.678Z,27.53
2022-09-23T09:51:26.816Z,27.42
2022-09-23T09:52:26.603Z,27.64
2022-09-23T09:53:26.740Z,27.84
2022-09-23T09:54:26.424Z,22.94
2022-09-23T09:55:48.051Z,39.91
2022-09-23T09:56:43.030Z,30.03
2022-09-23T09:57:43.116Z,27.23
2022-09-23T09:58:42.965Z,26.31
2022-09-23T09:59:43.029Z,25.87
2022-09-23T10:00:42.839Z,26.03
2022-09-23T10:01:42.993Z,25.98
2022-09-23T10:02:42.752Z,26.32
2022-09-23T10:03:42.888Z,26.61
2022-09-23T10:04:42.735Z,26.69
2022-09-23T10:05:42.805Z,27.10
2022-09-23T10:06:42.518Z,27.30
2022-09-23T10:07:42.672Z,27.66
2022-09-23T10:08:42.396Z,28.06
2022-09-23T10:09:42.443Z,28.42
2022-09-23T10:10:42.470Z,28.65
2022-09-23T10:11:42.171Z,29.01
2022-09-23T10:12:42.324Z,29.31
2022-09-23T10:13:42.015Z,29.71
2022-09-23T10:14:42.065Z,29.83
2022-09-23T10:15:44.733Z,30.11
2022-09-23T10:16:42.294Z,30.35
2022-09-23T10:17:41.692Z,30.59
2022-09-23T10:18:42.017Z,30.57
2022-09-23T10:19:41.538Z,30.86
2022-09-23T10:20:41.559Z,30.79
2022-09-23T10:21:41.345Z,30.91
2022-09-23T10:22:41.494Z,31.25
2022-09-23T10:23:41.169Z,31.35
2022-09-23T10:24:41.228Z,31.44
2022-09-23T10:25:40.996Z,31.51
2022-09-23T10:26:41.125Z,31.65
2022-09-23T10:27:40.822Z,32.01
2022-09-23T10:28:41.066Z,32.33
2022-09-23T10:29:40.650Z,32.38
2022-09-23T10:30:40.746Z,32.61
2022-09-23T10:31:40.490Z,32.81
2022-09-23T10:32:40.607Z,32.94
2022-09-23T10:33:40.335Z,33.12
2022-09-23T10:34:40.470Z,33.33
2022-09-23T10:35:40.154Z,33.39
2022-09-23T10:36:44.489Z,33.47
2022-09-23T10:37:39.993Z,33.63
2022-09-23T10:38:40.024Z,33.95
2022-09-23T10:39:39.818Z,34.01
2022-09-23T10:40:40.086Z,34.03
2022-09-23T10:41:39.648Z,34.26
2022-09-23T10:42:39.928Z,34.37
2022-09-23T10:43:39.468Z,34.48
2022-09-23T10:44:39.557Z,34.88
2022-09-23T10:45:41.198Z,34.77
2022-09-23T10:46:39.488Z,34.85
2022-09-23T10:47:39.123Z,35.00
2022-09-23T10:48:39.219Z,35.38
2022-09-23T10:49:38.971Z,35.32
2022-09-23T10:50:38.987Z,35.56
2022-09-23T10:51:38.778Z,35.47
2022-09-23T10:52:38.923Z,35.71
2022-09-23T10:53:38.628Z,35.68
2022-09-23T10:54:38.707Z,35.92
2022-09-23T10:55:38.442Z,35.89
2022-09-23T10:56:38.455Z,35.99
2022-09-23T10:57:38.266Z,36.11
2022-09-23T10:58:38.397Z,36.11
2022-09-23T10:59:38.108Z,36.30
2022-09-23T11:00:38.151Z,36.45
2022-09-23T11:01:37.956Z,36.42
2022-09-23T11:02:38.007Z,36.68
2022-09-23T11:03:37.748Z,36.68
2022-09-23T11:04:37.999Z,36.80
2022-09-23T11:05:37.563Z,37.10
2022-09-23T11:06:37.604Z,37.23
2022-09-23T11:07:37.523Z,37.00
2022-09-23T11:08:37.478Z,36.97
2022-09-23T11:09:37.206Z,36.97
2022-09-23T11:10:52.471Z,36.97
2022-09-23T11:11:37.016Z,37.20
2022-09-23T11:12:37.094Z,37.20
2022-09-23T11:13:36.823Z,37.29
2022-09-23T11:14:36.937Z,37.36
2022-09-23T11:15:36.658Z,37.49
2022-09-23T11:16:36.850Z,37.59
2022-09-23T11:17:36.516Z,37.49
2022-09-23T11:18:36.578Z,37.63
2022-09-23T11:19:36.318Z,37.59
2022-09-23T11:20:36.408Z,37.56
2022-09-23T11:21:36.220Z,37.83
2022-09-23T11:22:36.221Z,37.83
2022-09-23T11:23:35.955Z,37.90
2022-09-23T11:24:36.041Z,38.14
2022-09-23T11:25:35.776Z,38.07
2022-09-23T11:26:35.822Z,38.14
2022-09-23T11:27:35.804Z,38.42
2022-09-23T11:28:35.571Z,38.42
2022-09-23T11:29:35.544Z,38.31
2022-09-23T11:30:35.362Z,38.45
2022-09-23T11:31:35.431Z,38.35
2022-09-23T11:32:35.163Z,38.63
2022-09-23T11:33:35.338Z,38.74
2022-09-23T11:34:34.977Z,38.42
2022-09-23T11:35:35.019Z,38.70
2022-09-23T11:36:34.803Z,38.59
2022-09-23T11:37:34.889Z,38.84
2022-09-23T11:38:34.616Z,38.52
2022-09-23T11:39:34.702Z,38.74
2022-09-23T11:40:34.582Z,38.84
2022-09-23T11:41:34.544Z,38.74
2022-09-23T11:42:34.273Z,38.91
2022-09-23T11:43:34.305Z,38.88
2022-09-23T11:44:34.076Z,38.91
2022-09-23T11:45:34.276Z,38.99
2022-09-23T11:46:33.891Z,38.95
2022-09-23T11:47:37.716Z,39.28
2022-09-23T11:48:33.704Z,39.31
2022-09-23T11:49:33.871Z,39.28
2022-09-23T11:50:33.514Z,39.02
2022-09-23T11:51:33.600Z,38.81
2022-09-23T11:52:33.320Z,38.59
2022-09-23T11:53:33.422Z,38.35
2022-09-23T11:54:33.142Z,38.24
2022-09-23T11:55:33.223Z,38.17
2022-09-23T11:56:35.785Z,38.10
2022-09-23T11:57:45.204Z,37.63
2022-09-23T11:58:32.858Z,37.63
2022-09-23T11:59:40.290Z,37.97
2022-09-23T12:00:32.604Z,37.86
2022-09-23T12:01:37.571Z,38.00
2022-09-23T12:02:32.553Z,37.97
2022-09-23T12:03:43.398Z,37.93
2022-09-23T12:04:32.397Z,37.97
2022-09-23T12:05:32.438Z,37.90
2022-09-23T12:06:32.045Z,37.93
2022-09-23T12:07:32.121Z,38.10
2022-09-23T12:08:31.849Z,38.10
2022-09-23T12:09:56.683Z,38.00
2022-09-23T12:10:31.642Z,38.17
2022-09-23T12:11:32.677Z,38.14
2022-09-23T12:12:31.580Z,37.90
2022-09-23T12:13:31.337Z,38.00
2022-09-23T12:14:31.427Z,37.86
2022-09-23T12:15:31.183Z,37.93
2022-09-23T12:16:32.177Z,37.97
2022-09-23T12:17:31.103Z,38.17
2022-09-23T12:18:30.841Z,37.93
2022-09-23T12:19:30.856Z,37.80
2022-09-23T12:20:30.640Z,38.04
2022-09-23T12:21:49.762Z,37.90
2022-09-23T12:22:30.434Z,37.90
2022-09-23T12:23:30.456Z,37.86
2022-09-23T12:24:30.256Z,38.07
2022-09-23T12:25:30.437Z,37.86
2022-09-23T12:26:30.030Z,37.86
2022-09-23T12:27:30.131Z,37.90
2022-09-23T12:28:29.844Z,37.86
2022-09-23T12:29:29.923Z,38.04
2022-09-23T12:30:29.696Z,38.07
2022-09-23T12:31:29.739Z,38.21
2022-09-23T12:32:29.429Z,38.21
2022-09-23T12:33:30.467Z,38.21
2022-09-23T12:34:29.443Z,38.21
2022-09-23T12:35:29.114Z,38.31
2022-09-23T12:36:29.150Z,38.21
2022-09-23T12:37:28.911Z,38.21
2022-09-23T12:38:28.949Z,38.07
2022-09-23T12:39:29.432Z,37.70
2022-09-23T12:40:28.673Z,37.80
2022-09-23T12:41:28.668Z,37.83
2022-09-23T12:42:31.116Z,37.80
2022-09-23T12:43:28.407Z,37.59
2022-09-23T12:44:28.158Z,37.73
2022-09-23T12:45:28.338Z,37.83
2022-09-23T12:46:27.946Z,37.70
2022-09-23T12:47:28.034Z,37.83
2022-09-23T12:48:27.737Z,37.86
2022-09-23T12:49:28.723Z,37.86
2022-09-23T12:50:27.722Z,37.90
2022-09-23T12:51:27.470Z,37.90
2022-09-23T12:52:27.435Z,37.93
2022-09-23T12:53:27.193Z,38.10
2022-09-23T12:54:27.261Z,37.90
2022-09-23T12:55:26.980Z,38.07
2022-09-23T12:56:27.048Z,38.04
2022-09-23T12:57:26.794Z,38.00
2022-09-23T12:58:26.837Z,37.83
2022-09-23T12:59:26.524Z,37.76
2022-09-23T13:00:29.840Z,37.66
2022-09-23T13:01:26.548Z,37.70
2022-09-23T13:02:26.424Z,37.73
2022-09-23T13:03:26.102Z,37.59
2022-09-23T13:04:26.069Z,37.53
2022-09-23T13:05:25.829Z,37.56
2022-09-23T13:06:25.931Z,37.53
2022-09-23T13:07:25.595Z,37.46
2022-09-23T13:08:25.657Z,37.49
2022-09-23T13:09:25.415Z,37.36
2022-09-23T13:10:25.430Z,37.29
2022-09-23T13:11:25.129Z,37.10
2022-09-23T13:12:25.137Z,36.97
2022-09-23T13:13:24.893Z,37.00
2022-09-23T13:14:27.576Z,36.61
2022-09-23T13:15:24.703Z,36.42
2022-09-23T13:16:24.779Z,36.36
2022-09-23T13:17:24.440Z,36.20
2022-09-23T13:18:24.494Z,35.92
2022-09-23T13:19:24.210Z,35.74
2022-09-23T13:20:24.211Z,35.53
2022-09-23T13:21:24.251Z,35.50
2022-09-23T13:22:23.857Z,35.47
2022-09-23T13:23:23.900Z,35.26
2022-09-23T13:24:23.623Z,35.11
2022-09-23T13:25:23.662Z,35.14
2022-09-23T13:26:23.374Z,35.17
2022-09-23T13:27:24.010Z,35.50
2022-09-23T13:28:23.125Z,35.68
2022-09-23T13:29:23.144Z,35.77
2022-09-23T13:30:26.215Z,35.89
2022-09-23T13:31:22.989Z,35.86
2022-09-23T13:32:22.650Z,35.92
2022-09-23T13:33:22.730Z,35.95
2022-09-23T13:34:22.407Z,35.99
2022-09-23T13:35:22.426Z,35.99
2022-09-23T13:36:22.212Z,35.89
2022-09-23T13:37:23.006Z,36.02
2022-09-23T13:38:21.937Z,36.05
2022-09-23T13:39:22.036Z,35.80
2022-09-23T13:40:21.827Z,35.83
2022-09-23T13:41:21.748Z,35.92
2022-09-23T13:42:21.451Z,36.02
2022-09-23T13:43:21.457Z,36.05
2022-09-23T13:44:21.207Z,36.05
2022-09-23T13:45:21.307Z,36.17
2022-09-23T13:46:21.154Z,36.14
2022-09-23T13:47:21.071Z,36.17
2022-09-23T13:48:20.722Z,36.20
2022-09-23T13:49:20.744Z,36.39
2022-09-23T13:50:20.484Z,36.36
2022-09-23T13:51:20.651Z,36.36
2022-09-23T13:52:20.248Z,36.36
2022-09-23T13:53:20.287Z,36.42
2022-09-23T13:54:20.016Z,36.42
2022-09-23T13:55:20.033Z,36.49
2022-09-23T13:56:19.782Z,36.68
2022-09-23T13:57:19.890Z,36.64
2022-09-23T13:58:19.568Z,36.52
2022-09-23T13:59:19.585Z,36.71
2022-09-23T14:00:19.307Z,36.71
2022-09-23T14:01:19.370Z,36.84
2022-09-23T14:02:19.127Z,36.87
2022-09-23T14:03:19.192Z,37.00
2022-09-23T14:04:18.850Z,37.06
2022-09-23T14:05:18.874Z,37.16
2022-09-23T14:06:18.589Z,37.16
2022-09-23T14:07:18.712Z,37.00
2022-09-23T14:08:18.354Z,37.00
2022-09-23T14:09:18.462Z,36.80
2022-09-23T14:10:18.105Z,36.97
2022-09-23T14:11:18.104Z,36.97
2022-09-23T14:12:17.866Z,36.97
2022-09-23T14:13:21.311Z,36.90
2022-09-23T14:14:17.615Z,37.16
2022-09-23T14:15:17.671Z,37.00
2022-09-23T14:16:17.420Z,37.06
2022-09-23T14:17:17.456Z,37.20
2022-09-23T14:18:17.121Z,37.26
2022-09-23T14:19:17.139Z,37.20
2022-09-23T14:20:16.887Z,37.33
2022-09-23T14:21:17.007Z,37.39
2022-09-23T14:22:16.651Z,37.33
2022-09-23T14:23:16.863Z,37.36
2022-09-23T14:24:16.420Z,37.53
2022-09-23T14:25:16.431Z,37.53
2022-09-23T14:26:16.269Z,37.56
2022-09-23T14:27:16.298Z,37.53
2022-09-23T14:28:15.935Z,37.49
2022-09-23T14:29:15.942Z,37.49
2022-09-23T14:30:15.700Z,37.53
2022-09-23T14:31:15.778Z,37.46
2022-09-23T14:32:15.454Z,37.46
2022-09-23T14:33:15.577Z,37.59
2022-09-23T14:34:15.213Z,37.66
2022-09-23T14:35:15.219Z,37.46
2022-09-23T14:36:14.955Z,37.49
2022-09-23T14:37:15.012Z,37.56
2022-09-23T14:38:14.707Z,37.43
2022-09-23T14:39:14.816Z,37.63
2022-09-23T14:40:14.641Z,37.46
2022-09-23T14:41:14.562Z,37.70
2022-09-23T14:42:14.220Z,37.59
2022-09-23T14:43:14.277Z,37.63
2022-09-23T14:44:13.971Z,37.70
2022-09-23T14:45:14.041Z,37.83
2022-09-23T14:46:13.820Z,37.76
2022-09-23T14:47:13.986Z,37.53
2022-09-23T14:48:13.478Z,37.70
2022-09-23T14:49:13.502Z,37.49
2022-09-23T14:50:13.233Z,37.53
2022-09-23T14:51:17.084Z,37.43
2022-09-23T14:52:12.981Z,37.56
2022-09-23T14:53:13.035Z,37.56
2022-09-23T14:54:12.724Z,37.80
2022-09-23T14:55:12.779Z,38.00
2022-09-23T14:56:12.478Z,38.21
2022-09-23T14:57:12.589Z,38.21
2022-09-23T14:58:12.233Z,38.42
2022-09-23T14:59:12.309Z,38.52
2022-09-23T15:00:11.983Z,38.66
2022-09-23T15:01:12.171Z,38.81
2022-09-23T15:02:11.757Z,38.95
2022-09-23T15:03:11.949Z,39.24
2022-09-23T15:04:11.511Z,39.39
2022-09-23T15:05:11.535Z,39.39
2022-09-23T15:06:11.295Z,39.72
2022-09-23T15:07:11.330Z,39.69
2022-09-23T15:08:11.079Z,40.03
2022-09-23T15:09:11.128Z,40.10
2022-09-23T15:10:10.832Z,40.29
2022-09-23T15:11:10.905Z,40.41
2022-09-23T15:12:10.614Z,40.68
2022-09-23T15:13:10.661Z,40.65
2022-09-23T15:14:36.185Z,40.68
2022-09-23T15:15:10.567Z,40.88
2022-09-23T15:16:10.183Z,40.84
2022-09-23T15:17:10.174Z,41.04
2022-09-23T15:18:09.926Z,41.12
2022-09-23T15:19:09.984Z,41.04
2022-09-23T15:20:09.691Z,41.28
2022-09-23T15:21:09.796Z,41.32
2022-09-23T15:22:09.457Z,41.45
2022-09-23T15:23:09.464Z,41.32
2022-09-23T15:24:09.219Z,41.65
2022-09-23T15:25:09.292Z,41.65
2022-09-23T15:26:08.996Z,41.82
2022-09-23T15:27:09.102Z,41.94
2022-09-23T15:28:08.779Z,42.07
2022-09-23T15:29:08.777Z,42.07
2022-09-23T15:30:12.601Z,42.15
2022-09-23T15:31:08.761Z,42.15
2022-09-23T15:32:08.319Z,42.24
2022-09-23T15:33:08.385Z,42.28
2022-09-23T15:34:08.126Z,42.32
2022-09-23T15:35:08.173Z,42.32
2022-09-23T15:36:07.887Z,42.32
2022-09-23T15:37:08.010Z,42.41
2022-09-23T15:38:07.772Z,42.32
2022-09-23T15:39:07.754Z,42.45
2022-09-23T15:40:07.481Z,42.36
2022-09-23T15:41:07.508Z,42.49
2022-09-23T15:42:07.217Z,42.58
2022-09-23T15:43:07.236Z,42.62
2022-09-23T15:44:07.130Z,42.58
2022-09-23T15:45:07.138Z,42.75
2022-09-23T15:46:06.881Z,42.71
2022-09-23T15:47:06.847Z,42.71
2022-09-23T15:48:06.562Z,42.79
2022-09-23T15:49:06.691Z,42.75
2022-09-23T15:50:06.394Z,42.79
2022-09-23T15:51:06.466Z,42.84
2022-09-23T15:52:06.134Z,42.84
2022-09-23T15:53:06.223Z,42.62
2022-09-23T15:54:05.933Z,42.93
2022-09-23T15:55:05.995Z,42.79
2022-09-23T15:56:05.780Z,42.97
2022-09-23T15:57:05.775Z,42.88
2022-09-23T15:58:05.503Z,42.84
2022-09-23T15:59:05.649Z,42.71
2022-09-23T16:00:05.295Z,42.93
2022-09-23T16:01:05.478Z,42.88
2022-09-23T16:02:05.134Z,43.10
2022-09-23T16:03:05.369Z,42.97
2022-09-23T16:04:04.884Z,42.93
2022-09-23T16:05:04.920Z,43.06
2022-09-23T16:06:04.775Z,42.62
2022-09-23T16:07:04.789Z,42.97
2022-09-23T16:08:08.725Z,42.93
2022-09-23T16:09:04.528Z,42.88
2022-09-23T16:10:04.228Z,42.97
2022-09-23T16:11:04.311Z,43.06
2022-09-23T16:12:04.026Z,43.06
2022-09-23T16:13:04.102Z,42.93
2022-09-23T16:14:03.808Z,43.01
2022-09-23T16:15:03.950Z,42.88
2022-09-23T16:16:03.699Z,42.97
2022-09-23T16:17:03.674Z,42.88
2022-09-23T16:18:03.400Z,42.93
2022-09-23T16:19:03.478Z,42.88
2022-09-23T16:20:03.196Z,42.75
2022-09-23T16:21:03.395Z,42.93
2022-09-23T16:22:02.983Z,42.79
2022-09-23T16:23:03.024Z,42.28
2022-09-23T16:24:02.778Z,41.98
2022-09-23T16:25:02.804Z,41.45
2022-09-23T16:26:02.560Z,41.16
2022-09-23T16:27:02.727Z,40.84
2022-09-23T16:28:02.352Z,40.72
2022-09-23T16:29:02.409Z,40.37
2022-09-23T16:30:02.265Z,39.95
2022-09-23T16:31:02.352Z,39.61
2022-09-23T16:32:01.999Z,39.43
2022-09-23T16:33:02.089Z,39.28
2022-09-23T16:34:01.767Z,39.13
2022-09-23T16:35:01.881Z,39.17
2022-09-23T16:36:01.590Z,39.13
2022-09-23T16:37:01.689Z,38.91
2022-09-23T16:38:01.396Z,38.35
2022-09-23T16:39:01.592Z,38.24
2022-09-23T16:40:01.216Z,38.04
2022-09-23T16:41:01.482Z,37.93
2022-09-23T16:42:01.010Z,38.00
2022-09-23T16:43:01.036Z,38.04
2022-09-23T16:44:00.830Z,38.00
2022-09-23T16:45:00.928Z,38.14
2022-09-23T16:46:00.748Z,38.14
2022-09-23T16:47:00.614Z,38.21
2022-09-23T16:48:00.372Z,38.21
2022-09-23T16:49:00.467Z,38.35
2022-09-23T16:50:00.237Z,38.31
2022-09-23T16:51:00.255Z,38.35
2022-09-23T16:51:59.932Z,38.28
2022-09-23T16:52:59.946Z,38.31
2022-09-23T16:53:59.723Z,38.35
2022-09-23T16:54:59.793Z,38.49
2022-09-23T16:55:59.508Z,38.45
2022-09-23T16:56:59.575Z,38.42
2022-09-23T16:57:59.267Z,38.66
2022-09-23T16:58:59.359Z,38.77
2022-09-23T16:59:59.047Z,38.77
2022-09-23T17:00:59.150Z,38.77
2022-09-23T17:01:58.918Z,38.91
2022-09-23T17:02:58.982Z,38.91
2022-09-23T17:03:58.593Z,38.74
2022-09-23T17:04:58.608Z,38.52
2022-09-23T17:05:58.360Z,38.56
2022-09-23T17:06:58.417Z,38.56
2022-09-23T17:07:58.123Z,38.59
2022-09-23T17:08:58.336Z,38.70
2022-09-23T17:09:57.896Z,39.13
2022-09-23T17:10:58.033Z,38.95
2022-09-23T17:11:57.669Z,38.99
2022-09-23T17:12:57.729Z,39.24
2022-09-23T17:13:57.410Z,39.24
2022-09-23T17:14:57.475Z,39.50
2022-09-23T17:15:57.222Z,39.69
2022-09-23T17:16:57.227Z,39.72
2022-09-23T17:17:56.934Z,39.46
2022-09-23T17:18:56.994Z,39.65
2022-09-23T17:19:56.682Z,39.76
2022-09-23T17:20:56.794Z,39.46
2022-09-23T17:21:56.445Z,39.61
2022-09-23T17:22:56.528Z,39.72
2022-09-23T17:23:56.206Z,39.80
2022-09-23T17:24:56.329Z,39.72
2022-09-23T17:25:55.953Z,39.65
2022-09-23T17:26:56.077Z,39.69
2022-09-23T17:27:55.713Z,39.69
2022-09-23T17:28:55.722Z,39.43
2022-09-23T17:29:55.491Z,39.43
2022-09-23T17:30:55.513Z,39.43
2022-09-23T17:31:55.242Z,38.99
2022-09-23T17:32:55.290Z,39.54
2022-09-23T17:33:54.948Z,39.24
2022-09-23T17:34:54.946Z,39.06
2022-09-23T17:35:54.693Z,38.99
2022-09-23T17:36:54.765Z,38.52
2022-09-23T17:37:54.452Z,38.24
2022-09-23T17:38:54.519Z,38.28
2022-09-23T17:39:54.175Z,38.10
2022-09-23T17:40:54.213Z,38.31
2022-09-23T17:41:53.926Z,38.52
2022-09-23T17:42:53.913Z,38.14
2022-09-23T17:43:53.653Z,38.24
2022-09-23T17:44:53.737Z,38.28
2022-09-23T17:45:53.464Z,38.21
2022-09-23T17:46:53.394Z,38.74
2022-09-23T17:47:53.124Z,38.14
2022-09-23T17:48:53.229Z,37.00
2022-09-23T17:49:52.852Z,37.26
2022-09-23T17:50:53.193Z,37.20
2022-09-23T17:51:52.585Z,37.29
2022-09-23T17:52:52.579Z,37.80
2022-09-23T17:53:52.332Z,37.46
2022-09-23T17:54:52.374Z,37.26
2022-09-23T17:55:52.036Z,37.29
2022-09-23T17:56:52.135Z,37.20
2022-09-23T17:57:51.811Z,37.23
2022-09-23T17:58:51.751Z,37.36
2022-09-23T17:59:51.490Z,37.26
2022-09-23T18:00:51.639Z,37.23
2022-09-23T18:01:51.285Z,37.29
2022-09-23T18:02:51.418Z,37.43
2022-09-23T18:03:50.935Z,37.63
2022-09-23T18:04:50.928Z,37.53
2022-09-23T18:05:50.665Z,37.90
2022-09-23T18:06:50.899Z,37.80
2022-09-23T18:07:50.399Z,37.93
2022-09-23T18:08:50.444Z,37.90
2022-09-23T18:09:50.112Z,38.17
2022-09-23T18:10:50.200Z,38.10
2022-09-23T18:11:49.822Z,38.14
2022-09-23T18:12:49.797Z,38.10
2022-09-23T18:13:49.542Z,38.04
2022-09-23T18:14:49.681Z,38.21
2022-09-23T18:15:49.252Z,38.35
2022-09-23T18:16:49.289Z,38.21
2022-09-23T18:17:48.965Z,38.38
2022-09-23T18:18:48.989Z,38.56
2022-09-23T18:19:48.684Z,38.59
2022-09-23T18:20:48.792Z,38.70
2022-09-23T18:21:48.412Z,38.70
2022-09-23T18:22:48.427Z,38.91
2022-09-23T18:23:48.093Z,38.95
2022-09-23T18:24:48.127Z,39.06
2022-09-23T18:25:47.803Z,39.02
2022-09-23T18:26:47.842Z,39.20
2022-09-23T18:27:47.515Z,39.65
2022-09-23T18:28:47.542Z,39.54
2022-09-23T18:29:47.238Z,39.50
2022-09-23T18:30:47.263Z,39.69
2022-09-23T18:31:47.075Z,39.46
2022-09-23T18:32:46.928Z,39.20
2022-09-23T18:33:46.626Z,39.46
2022-09-23T18:34:46.701Z,39.17
2022-09-23T18:35:46.332Z,39.24
2022-09-23T18:36:46.302Z,39.24
2022-09-23T18:37:46.014Z,39.35
2022-09-23T18:38:46.135Z,39.39
2022-09-23T18:39:45.709Z,39.31
2022-09-23T18:40:45.733Z,39.31
2022-09-23T18:41:45.402Z,39.24
2022-09-23T18:42:45.481Z,39.43
2022-09-23T18:43:48.368Z,39.20
2022-09-23T18:44:45.164Z,39.06
2022-09-23T18:45:44.860Z,39.39
2022-09-23T18:46:44.876Z,39.24
2022-09-23T18:47:44.485Z,39.50
2022-09-23T18:48:44.570Z,39.31
2022-09-23T18:49:44.178Z,39.46
2022-09-23T18:50:44.271Z,39.69
2022-09-23T18:51:43.862Z,39.87
2022-09-23T18:52:43.956Z,39.76
2022-09-23T18:53:43.553Z,39.72
2022-09-23T18:54:43.630Z,40.03
2022-09-23T18:55:43.236Z,39.65
2022-09-23T18:56:43.264Z,39.84
2022-09-23T18:57:42.926Z,39.72
2022-09-23T18:58:43.003Z,39.87
2022-09-23T18:59:42.598Z,39.87
2022-09-23T19:00:42.784Z,39.72
2022-09-23T19:01:42.438Z,39.80
2022-09-23T19:02:42.423Z,39.84
2022-09-23T19:03:41.947Z,39.84
2022-09-23T19:04:41.913Z,40.06
2022-09-23T19:05:41.625Z,40.18
2022-09-23T19:06:41.600Z,40.29
2022-09-23T19:07:41.295Z,39.87
2022-09-23T19:08:41.516Z,40.33
2022-09-23T19:09:40.982Z,40.03
2022-09-23T19:10:41.068Z,40.26
2022-09-23T19:11:40.662Z,40.49
2022-09-23T19:12:40.630Z,40.26
2022-09-23T19:13:40.335Z,40.22
2022-09-23T19:14:40.433Z,40.03
2022-09-23T19:15:40.011Z,40.18
2022-09-23T19:16:40.236Z,40.14
2022-09-23T19:17:39.680Z,40.03
2022-09-23T19:18:39.632Z,40.26
2022-09-23T19:19:39.353Z,40.26
2022-09-23T19:20:39.469Z,40.41
2022-09-23T19:21:39.018Z,40.45
2022-09-23T19:22:39.227Z,40.26
2022-09-23T19:23:38.684Z,40.37
2022-09-23T19:24:38.641Z,40.33
2022-09-23T19:25:38.353Z,40.26
2022-09-23T19:26:38.534Z,40.49
2022-09-23T19:27:38.024Z,40.57
2022-09-23T19:28:38.117Z,40.53
2022-09-23T19:29:37.730Z,40.57
2022-09-23T19:30:37.664Z,40.68
2022-09-23T19:31:37.398Z,40.61
2022-09-23T19:32:37.528Z,40.61
2022-09-23T19:33:37.492Z,40.68
2022-09-23T19:34:36.872Z,40.72
2022-09-23T19:35:36.902Z,40.88
2022-09-23T19:36:36.544Z,41.00
2022-09-23T19:37:36.561Z,40.68
2022-09-23T19:38:36.438Z,40.61
2022-09-23T19:39:36.052Z,40.61
2022-09-23T19:40:36.202Z,40.68
2022-09-23T19:41:35.738Z,40.96
2022-09-23T19:42:35.684Z,40.80
2022-09-23T19:43:35.379Z,40.76
2022-09-23T19:44:35.617Z,40.80
2022-09-23T19:45:35.056Z,40.80
2022-09-23T19:46:35.060Z,40.92
2022-09-23T19:47:34.706Z,41.04
2022-09-23T19:48:34.713Z,40.92
2022-09-23T19:49:34.385Z,40.88
2022-09-23T19:50:34.475Z,40.96
2022-09-23T19:51:34.047Z,40.65
2022-09-23T19:52:34.028Z,41.28
2022-09-23T19:53:33.726Z,41.04
2022-09-23T19:54:33.778Z,41.28
2022-09-23T19:55:33.409Z,41.24
2022-09-23T19:56:33.459Z,40.96
2022-09-23T19:57:33.075Z,41.08
2022-09-23T19:58:33.150Z,41.00
2022-09-23T19:59:32.739Z,41.04
2022-09-23T20:00:32.732Z,40.92
2022-09-23T20:01:32.403Z,41.12
2022-09-23T20:02:32.612Z,40.68
2022-09-23T20:03:32.066Z,40.88
2022-09-23T20:04:32.079Z,40.26
2022-09-23T20:05:31.742Z,40.53
2022-09-23T20:06:31.705Z,40.33
2022-09-23T20:07:31.421Z,40.37
2022-09-23T20:08:31.556Z,40.41
2022-09-23T20:09:31.095Z,40.22
2022-09-23T20:10:31.162Z,40.29
2022-09-23T20:11:30.766Z,40.14
2022-09-23T20:12:30.827Z,40.14
2022-09-23T20:13:30.439Z,40.29
2022-09-23T20:14:30.506Z,40.18
2022-09-23T20:15:30.102Z,40.18
2022-09-23T20:16:30.306Z,40.26
2022-09-23T20:17:29.780Z,40.18
2022-09-23T20:18:29.842Z,40.06
2022-09-23T20:19:29.415Z,39.99
2022-09-23T20:20:29.468Z,39.99
2022-09-23T20:21:29.170Z,40.03
2022-09-23T20:22:33.109Z,40.22
2022-09-23T20:23:28.714Z,39.99
2022-09-23T20:24:28.774Z,40.10
2022-09-23T20:25:28.384Z,40.06
2022-09-23T20:26:28.428Z,40.22
2022-09-23T20:27:28.021Z,40.29
2022-09-23T20:28:28.091Z,40.37
2022-09-23T20:29:27.674Z,40.41
2022-09-23T20:30:27.733Z,40.41
2022-09-23T20:31:27.410Z,40.61
2022-09-23T20:32:27.427Z,40.41
2022-09-23T20:33:27.010Z,40.57
2022-09-23T20:34:27.259Z,40.33
2022-09-23T20:35:26.657Z,40.33
2022-09-23T20:36:26.603Z,40.57
2022-09-23T20:37:26.313Z,40.37
2022-09-23T20:38:26.456Z,40.37
2022-09-23T20:39:25.981Z,40.33
2022-09-23T20:40:26.095Z,40.49
2022-09-23T20:41:25.657Z,40.61
2022-09-23T20:42:25.587Z,40.68
2022-09-23T20:43:25.298Z,40.76
2022-09-23T20:44:25.362Z,40.53
2022-09-23T20:45:24.962Z,40.76
2022-09-23T20:46:25.027Z,40.65
2022-09-23T20:47:24.615Z,40.45
2022-09-23T20:48:24.578Z,40.68
2022-09-23T20:49:24.291Z,40.80
2022-09-23T20:50:24.692Z,40.72
2022-09-23T20:51:23.947Z,40.68
2022-09-23T20:52:23.904Z,40.84
2022-09-23T20:53:23.602Z,40.68
2022-09-23T20:54:23.659Z,40.68
2022-09-23T20:55:23.268Z,40.92
2022-09-23T20:56:23.298Z,40.61
2022-09-23T20:57:22.926Z,40.80
2022-09-23T20:58:22.969Z,40.68
2022-09-23T20:59:22.591Z,40.72
2022-09-23T21:00:22.643Z,40.57
2022-09-23T21:01:22.412Z,40.57
2022-09-23T21:02:22.403Z,40.65
2022-09-23T21:03:21.915Z,40.33
2022-09-23T21:04:21.950Z,40.53
2022-09-23T21:05:21.575Z,40.53
2022-09-23T21:06:21.635Z,40.33
2022-09-23T21:07:21.237Z,40.14
2022-09-23T21:08:21.315Z,40.14
2022-09-23T21:09:20.902Z,39.87
2022-09-23T21:10:21.070Z,39.84
2022-09-23T21:11:20.566Z,39.87
2022-09-23T21:12:20.513Z,40.18
2022-09-23T21:13:20.233Z,39.84
2022-09-23T21:14:20.394Z,39.72
2022-09-23T21:15:19.897Z,40.10
2022-09-23T21:16:20.062Z,40.10
2022-09-23T21:17:19.574Z,39.95
2022-09-23T21:18:22.558Z,39.69
2022-09-23T21:19:19.237Z,39.84
2022-09-23T21:20:19.338Z,39.87
2022-09-23T21:21:18.913Z,39.76
2022-09-23T21:22:18.827Z,39.87
2022-09-23T21:23:21.177Z,39.72
2022-09-23T21:24:45.660Z,40.03
2022-09-23T21:25:29.348Z,39.87
2022-09-23T21:26:18.060Z,39.65
2022-09-23T21:27:18.133Z,39.95
2022-09-23T21:28:17.719Z,39.99
2022-09-23T21:29:17.687Z,39.80
2022-09-23T21:30:17.383Z,39.87
2022-09-23T21:31:17.717Z,39.84
2022-09-23T21:32:17.051Z,40.06
2022-09-23T21:33:17.018Z,39.99
2022-09-23T21:34:16.721Z,39.99
2022-09-23T21:35:16.922Z,40.33
2022-09-23T21:36:16.377Z,40.18
2022-09-23T21:37:16.486Z,40.10
2022-09-23T21:38:16.035Z,39.84
2022-09-23T21:39:16.093Z,39.80
2022-09-23T21:40:15.722Z,39.91
2022-09-23T21:41:15.762Z,40.03
2022-09-23T21:42:15.359Z,39.80
2022-09-23T21:43:15.430Z,40.18
2022-09-23T21:44:15.022Z,39.99
2022-09-23T21:45:15.078Z,40.14
2022-09-23T21:46:14.804Z,40.18
2022-09-23T21:47:14.888Z,39.87
2022-09-23T21:48:14.355Z,39.91
2022-09-23T21:49:14.461Z,40.29
2022-09-23T21:50:14.021Z,40.06
2022-09-23T21:51:14.048Z,39.99
2022-09-23T21:52:13.686Z,40.03
2022-09-23T21:53:13.747Z,40.10
2022-09-23T21:54:13.364Z,40.10
2022-09-23T21:55:13.488Z,40.29
2022-09-23T21:56:16.793Z,40.03
2022-09-23T21:57:13.005Z,40.10
2022-09-23T21:58:12.695Z,40.22
2022-09-23T21:59:12.712Z,39.95
2022-09-23T22:00:12.370Z,39.99
2022-09-23T22:01:12.634Z,40.22
2022-09-23T22:02:12.015Z,40.14
2022-09-23T22:03:12.028Z,40.45
2022-09-23T22:04:11.995Z,40.22
2022-09-23T22:05:11.766Z,40.18
2022-09-23T22:06:11.382Z,40.29
2022-09-23T22:07:11.611Z,40.37
2022-09-23T22:08:11.019Z,40.53
2022-09-23T22:09:11.018Z,40.41
2022-09-23T22:10:10.688Z,40.33
2022-09-23T22:11:10.742Z,40.61
2022-09-23T22:12:10.349Z,40.49
2022-09-23T22:13:12.963Z,40.49
2022-09-23T22:14:10.027Z,40.57
2022-09-23T22:15:10.021Z,40.41
2022-09-23T22:16:09.785Z,40.65
2022-09-23T22:17:09.757Z,40.72
2022-09-23T22:18:09.342Z,40.61
2022-09-23T22:19:09.365Z,40.61
2022-09-23T22:20:09.009Z,40.53
2022-09-23T22:21:09.008Z,40.45
2022-09-23T22:22:08.672Z,40.65
2022-09-23T22:23:08.627Z,40.92
2022-09-23T22:24:08.446Z,40.53
2022-09-23T22:25:08.442Z,41.00
2022-09-23T22:26:07.987Z,40.88
2022-09-23T22:27:07.956Z,40.92
2022-09-23T22:28:07.660Z,40.72
2022-09-23T22:29:07.666Z,40.92
2022-09-23T22:30:07.325Z,41.04
2022-09-23T22:31:07.486Z,41.04
2022-09-23T22:32:06.980Z,41.08
2022-09-23T22:33:06.940Z,41.04
2022-09-23T22:34:06.666Z,41.04
2022-09-23T22:35:06.640Z,41.04
2022-09-23T22:36:06.309Z,41.16
2022-09-23T22:37:06.382Z,41.00
2022-09-23T22:38:05.963Z,41.12
2022-09-23T22:39:05.975Z,41.24